sensor_id;sensor_type;location;lat;lon;timestamp;P1;durP1;ratioP1;P2;durP2;ratioP2
21330;SDS011;10824;51.632;4.950;2023-08-12T00:02:11;7.03;;;2.20;;
21330;SDS011;10824;51.632;4.950;2023-08-12T00:04:38;6.43;;;2.63;;
21330;SDS011;10824;51.632;4.950;2023-08-12T00:07:05;3.75;;;2.25;;
21330;SDS011;10824;51.632;4.950;2023-08-12T00:09:32;5.75;;;2.22;;
21330;SDS011;10824;51.632;4.950;2023-08-12T00:11:59;3.30;;;2.10;;
21330;SDS011;10824;51.632;4.950;2023-08-12T00:14:26;5.80;;;2.22;;
21330;SDS011;10824;51.632;4.950;2023-08-12T00:16:53;3.63;;;2.38;;
21330;SDS011;10824;51.632;4.950;2023-08-12T00:19:20;6.97;;;2.72;;
21330;SDS011;10824;51.632;4.950;2023-08-12T00:21:47;4.10;;;2.08;;
21330;SDS011;10824;51.632;4.950;2023-08-12T00:24:14;9.27;;;3.20;;
21330;SDS011;10824;51.632;4.950;2023-08-12T00:26:43;6.68;;;2.33;;
21330;SDS011;10824;51.632;4.950;2023-08-12T00:29:10;8.13;;;2.80;;
21330;SDS011;10824;51.632;4.950;2023-08-12T00:31:37;5.80;;;2.90;;
21330;SDS011;10824;51.632;4.950;2023-08-12T00:34:04;5.32;;;2.58;;
21330;SDS011;10824;51.632;4.950;2023-08-12T00:36:31;3.47;;;2.47;;
21330;SDS011;10824;51.632;4.950;2023-08-12T00:38:58;9.38;;;3.08;;
21330;SDS011;10824;51.632;4.950;2023-08-12T00:41:26;6.20;;;2.63;;
21330;SDS011;10824;51.632;4.950;2023-08-12T00:43:53;5.30;;;3.05;;
21330;SDS011;10824;51.632;4.950;2023-08-12T00:46:20;4.28;;;2.80;;
21330;SDS011;10824;51.632;4.950;2023-08-12T00:48:48;10.02;;;4.03;;
21330;SDS011;10824;51.632;4.950;2023-08-12T00:51:15;5.78;;;3.40;;
21330;SDS011;10824;51.632;4.950;2023-08-12T00:53:43;7.82;;;4.07;;
21330;SDS011;10824;51.632;4.950;2023-08-12T00:56:13;8.30;;;3.60;;
21330;SDS011;10824;51.632;4.950;2023-08-12T00:58:40;9.18;;;3.38;;
21330;SDS011;10824;51.632;4.950;2023-08-12T01:01:09;7.93;;;2.90;;
21330;SDS011;10824;51.632;4.950;2023-08-12T01:03:37;8.38;;;3.13;;
21330;SDS011;10824;51.632;4.950;2023-08-12T01:06:04;8.52;;;3.17;;
21330;SDS011;10824;51.632;4.950;2023-08-12T01:08:36;8.68;;;2.88;;
21330;SDS011;10824;51.632;4.950;2023-08-12T01:11:14;5.75;;;3.25;;
21330;SDS011;10824;51.632;4.950;2023-08-12T01:16:53;5.55;;;2.97;;
21330;SDS011;10824;51.632;4.950;2023-08-12T01:19:37;6.00;;;3.05;;
21330;SDS011;10824;51.632;4.950;2023-08-12T01:22:08;7.22;;;3.55;;
21330;SDS011;10824;51.632;4.950;2023-08-12T01:24:37;8.47;;;3.73;;
21330;SDS011;10824;51.632;4.950;2023-08-12T01:29:55;6.00;;;2.83;;
21330;SDS011;10824;51.632;4.950;2023-08-12T01:35:14;6.50;;;3.30;;
21330;SDS011;10824;51.632;4.950;2023-08-12T01:37:57;7.75;;;3.75;;
21330;SDS011;10824;51.632;4.950;2023-08-12T01:40:26;6.95;;;3.10;;
21330;SDS011;10824;51.632;4.950;2023-08-12T01:42:55;8.30;;;2.85;;
21330;SDS011;10824;51.632;4.950;2023-08-12T01:45:22;5.82;;;3.30;;
21330;SDS011;10824;51.632;4.950;2023-08-12T01:47:49;7.38;;;3.20;;
21330;SDS011;10824;51.632;4.950;2023-08-12T01:50:17;4.72;;;2.60;;
21330;SDS011;10824;51.632;4.950;2023-08-12T01:52:45;5.65;;;2.50;;
21330;SDS011;10824;51.632;4.950;2023-08-12T01:55:12;4.80;;;2.45;;
21330;SDS011;10824;51.632;4.950;2023-08-12T01:57:39;7.72;;;2.70;;
21330;SDS011;10824;51.632;4.950;2023-08-12T02:00:07;6.68;;;3.38;;
21330;SDS011;10824;51.632;4.950;2023-08-12T02:02:43;5.55;;;2.78;;
21330;SDS011;10824;51.632;4.950;2023-08-12T02:05:14;5.28;;;2.20;;
21330;SDS011;10824;51.632;4.950;2023-08-12T02:07:41;8.00;;;3.20;;
21330;SDS011;10824;51.632;4.950;2023-08-12T02:10:09;6.40;;;2.63;;
21330;SDS011;10824;51.632;4.950;2023-08-12T02:12:36;5.88;;;2.67;;
21330;SDS011;10824;51.632;4.950;2023-08-12T02:15:03;3.90;;;2.53;;
21330;SDS011;10824;51.632;4.950;2023-08-12T02:17:31;8.55;;;3.85;;
21330;SDS011;10824;51.632;4.950;2023-08-12T02:19:58;5.72;;;2.28;;
21330;SDS011;10824;51.632;4.950;2023-08-12T02:22:25;7.10;;;3.05;;
21330;SDS011;10824;51.632;4.950;2023-08-12T02:24:52;6.05;;;2.65;;
21330;SDS011;10824;51.632;4.950;2023-08-12T02:27:19;16.90;;;4.07;;
21330;SDS011;10824;51.632;4.950;2023-08-12T02:29:47;7.18;;;2.45;;
21330;SDS011;10824;51.632;4.950;2023-08-12T02:32:14;5.93;;;2.60;;
21330;SDS011;10824;51.632;4.950;2023-08-12T02:34:41;3.97;;;3.00;;
21330;SDS011;10824;51.632;4.950;2023-08-12T02:37:09;6.60;;;2.40;;
21330;SDS011;10824;51.632;4.950;2023-08-12T02:39:36;7.45;;;2.60;;
21330;SDS011;10824;51.632;4.950;2023-08-12T02:42:04;6.70;;;2.67;;
21330;SDS011;10824;51.632;4.950;2023-08-12T02:44:31;5.38;;;2.47;;
21330;SDS011;10824;51.632;4.950;2023-08-12T02:46:58;4.60;;;2.50;;
21330;SDS011;10824;51.632;4.950;2023-08-12T02:49:25;9.73;;;2.67;;
21330;SDS011;10824;51.632;4.950;2023-08-12T02:51:52;5.88;;;2.72;;
21330;SDS011;10824;51.632;4.950;2023-08-12T02:54:19;9.35;;;4.30;;
21330;SDS011;10824;51.632;4.950;2023-08-12T02:56:46;5.60;;;2.08;;
21330;SDS011;10824;51.632;4.950;2023-08-12T02:59:13;5.72;;;2.60;;
21330;SDS011;10824;51.632;4.950;2023-08-12T03:01:41;4.95;;;2.75;;
21330;SDS011;10824;51.632;4.950;2023-08-12T03:04:08;8.15;;;2.28;;
21330;SDS011;10824;51.632;4.950;2023-08-12T03:06:37;4.63;;;2.80;;
21330;SDS011;10824;51.632;4.950;2023-08-12T03:09:04;6.93;;;2.50;;
21330;SDS011;10824;51.632;4.950;2023-08-12T03:11:31;6.15;;;3.10;;
21330;SDS011;10824;51.632;4.950;2023-08-12T03:14:00;4.72;;;2.55;;
21330;SDS011;10824;51.632;4.950;2023-08-12T03:16:27;8.93;;;2.97;;
21330;SDS011;10824;51.632;4.950;2023-08-12T03:18:55;4.28;;;2.47;;
21330;SDS011;10824;51.632;4.950;2023-08-12T03:21:23;6.28;;;2.60;;
21330;SDS011;10824;51.632;4.950;2023-08-12T03:23:50;4.38;;;2.22;;
21330;SDS011;10824;51.632;4.950;2023-08-12T03:26:18;3.60;;;2.35;;
21330;SDS011;10824;51.632;4.950;2023-08-12T03:28:45;4.85;;;2.20;;
21330;SDS011;10824;51.632;4.950;2023-08-12T03:31:16;4.28;;;2.38;;
21330;SDS011;10824;51.632;4.950;2023-08-12T03:33:43;5.38;;;3.10;;
21330;SDS011;10824;51.632;4.950;2023-08-12T03:36:12;6.30;;;2.65;;
21330;SDS011;10824;51.632;4.950;2023-08-12T03:38:39;5.40;;;2.65;;
21330;SDS011;10824;51.632;4.950;2023-08-12T03:41:11;7.30;;;2.25;;
21330;SDS011;10824;51.632;4.950;2023-08-12T03:43:39;5.10;;;2.58;;
21330;SDS011;10824;51.632;4.950;2023-08-12T03:46:07;5.50;;;3.20;;
21330;SDS011;10824;51.632;4.950;2023-08-12T03:48:34;3.28;;;2.05;;
21330;SDS011;10824;51.632;4.950;2023-08-12T03:51:02;5.38;;;2.35;;
21330;SDS011;10824;51.632;4.950;2023-08-12T03:53:29;4.68;;;2.28;;
21330;SDS011;10824;51.632;4.950;2023-08-12T03:55:56;6.22;;;2.40;;
21330;SDS011;10824;51.632;4.950;2023-08-12T03:58:23;5.50;;;2.60;;
21330;SDS011;10824;51.632;4.950;2023-08-12T04:00:50;4.82;;;2.80;;
21330;SDS011;10824;51.632;4.950;2023-08-12T04:03:17;4.75;;;2.00;;
21330;SDS011;10824;51.632;4.950;2023-08-12T04:05:48;4.38;;;1.77;;
21330;SDS011;10824;51.632;4.950;2023-08-12T04:08:20;10.05;;;2.38;;
21330;SDS011;10824;51.632;4.950;2023-08-12T04:10:49;2.83;;;1.60;;
21330;SDS011;10824;51.632;4.950;2023-08-12T04:13:17;5.72;;;2.03;;
21330;SDS011;10824;51.632;4.950;2023-08-12T04:15:48;5.05;;;2.08;;
21330;SDS011;10824;51.632;4.950;2023-08-12T04:18:19;3.83;;;1.50;;
21330;SDS011;10824;51.632;4.950;2023-08-12T04:20:49;7.43;;;2.13;;
21330;SDS011;10824;51.632;4.950;2023-08-12T04:23:16;2.65;;;1.92;;
21330;SDS011;10824;51.632;4.950;2023-08-12T04:25:45;10.38;;;2.67;;
21330;SDS011;10824;51.632;4.950;2023-08-12T04:28:15;7.25;;;2.30;;
21330;SDS011;10824;51.632;4.950;2023-08-12T04:30:46;6.93;;;2.30;;
21330;SDS011;10824;51.632;4.950;2023-08-12T04:33:15;7.88;;;2.28;;
21330;SDS011;10824;51.632;4.950;2023-08-12T04:35:43;10.95;;;2.10;;
21330;SDS011;10824;51.632;4.950;2023-08-12T04:38:11;3.72;;;2.20;;
21330;SDS011;10824;51.632;4.950;2023-08-12T04:40:40;4.70;;;2.13;;
21330;SDS011;10824;51.632;4.950;2023-08-12T04:43:08;5.45;;;2.15;;
21330;SDS011;10824;51.632;4.950;2023-08-12T04:45:36;4.68;;;2.38;;
21330;SDS011;10824;51.632;4.950;2023-08-12T04:48:05;5.00;;;1.55;;
21330;SDS011;10824;51.632;4.950;2023-08-12T04:50:35;3.17;;;1.90;;
21330;SDS011;10824;51.632;4.950;2023-08-12T04:53:02;4.88;;;2.67;;
21330;SDS011;10824;51.632;4.950;2023-08-12T04:55:29;3.97;;;2.15;;
21330;SDS011;10824;51.632;4.950;2023-08-12T04:57:57;4.13;;;2.10;;
21330;SDS011;10824;51.632;4.950;2023-08-12T05:00:25;4.78;;;2.50;;
21330;SDS011;10824;51.632;4.950;2023-08-12T05:02:56;4.47;;;2.80;;
21330;SDS011;10824;51.632;4.950;2023-08-12T05:05:25;4.57;;;1.88;;
21330;SDS011;10824;51.632;4.950;2023-08-12T05:07:53;3.30;;;2.17;;
21330;SDS011;10824;51.632;4.950;2023-08-12T05:10:20;7.32;;;2.20;;
21330;SDS011;10824;51.632;4.950;2023-08-12T05:12:49;6.13;;;2.33;;
21330;SDS011;10824;51.632;4.950;2023-08-12T05:15:18;4.63;;;2.58;;
21330;SDS011;10824;51.632;4.950;2023-08-12T05:17:47;4.00;;;2.33;;
21330;SDS011;10824;51.632;4.950;2023-08-12T05:20:17;2.95;;;2.10;;
21330;SDS011;10824;51.632;4.950;2023-08-12T05:22:45;3.67;;;2.00;;
21330;SDS011;10824;51.632;4.950;2023-08-12T05:25:12;3.72;;;2.22;;
21330;SDS011;10824;51.632;4.950;2023-08-12T05:27:39;3.08;;;2.05;;
21330;SDS011;10824;51.632;4.950;2023-08-12T05:30:08;4.20;;;1.85;;
21330;SDS011;10824;51.632;4.950;2023-08-12T05:32:35;5.57;;;1.92;;
21330;SDS011;10824;51.632;4.950;2023-08-12T05:35:02;4.18;;;1.73;;
21330;SDS011;10824;51.632;4.950;2023-08-12T05:37:29;2.35;;;1.40;;
21330;SDS011;10824;51.632;4.950;2023-08-12T05:39:56;2.83;;;1.90;;
21330;SDS011;10824;51.632;4.950;2023-08-12T05:42:23;8.43;;;2.67;;
21330;SDS011;10824;51.632;4.950;2023-08-12T05:44:50;2.28;;;1.48;;
21330;SDS011;10824;51.632;4.950;2023-08-12T05:47:17;1.85;;;1.35;;
21330;SDS011;10824;51.632;4.950;2023-08-12T05:49:44;2.33;;;1.52;;
21330;SDS011;10824;51.632;4.950;2023-08-12T05:52:11;2.22;;;1.45;;
21330;SDS011;10824;51.632;4.950;2023-08-12T05:54:38;5.30;;;1.30;;
21330;SDS011;10824;51.632;4.950;2023-08-12T05:57:05;1.55;;;1.27;;
21330;SDS011;10824;51.632;4.950;2023-08-12T05:59:32;1.92;;;1.10;;
21330;SDS011;10824;51.632;4.950;2023-08-12T06:02:00;3.47;;;1.60;;
21330;SDS011;10824;51.632;4.950;2023-08-12T06:04:27;2.13;;;1.30;;
21330;SDS011;10824;51.632;4.950;2023-08-12T06:06:54;3.72;;;1.45;;
21330;SDS011;10824;51.632;4.950;2023-08-12T06:09:21;1.13;;;1.02;;
21330;SDS011;10824;51.632;4.950;2023-08-12T06:11:48;1.30;;;0.82;;
21330;SDS011;10824;51.632;4.950;2023-08-12T06:14:15;2.15;;;1.50;;
21330;SDS011;10824;51.632;4.950;2023-08-12T06:16:42;3.50;;;1.35;;
21330;SDS011;10824;51.632;4.950;2023-08-12T06:19:09;3.53;;;1.42;;
21330;SDS011;10824;51.632;4.950;2023-08-12T06:21:37;1.38;;;0.88;;
21330;SDS011;10824;51.632;4.950;2023-08-12T06:24:04;1.02;;;0.77;;
21330;SDS011;10824;51.632;4.950;2023-08-12T06:26:32;1.38;;;0.93;;
21330;SDS011;10824;51.632;4.950;2023-08-12T06:28:59;2.35;;;1.10;;
21330;SDS011;10824;51.632;4.950;2023-08-12T06:31:30;3.33;;;1.60;;
21330;SDS011;10824;51.632;4.950;2023-08-12T06:33:57;1.67;;;1.05;;
21330;SDS011;10824;51.632;4.950;2023-08-12T06:36:24;1.23;;;1.05;;
21330;SDS011;10824;51.632;4.950;2023-08-12T06:38:51;1.58;;;1.00;;
21330;SDS011;10824;51.632;4.950;2023-08-12T06:41:18;2.25;;;1.00;;
21330;SDS011;10824;51.632;4.950;2023-08-12T06:43:45;1.10;;;1.00;;
21330;SDS011;10824;51.632;4.950;2023-08-12T06:46:12;0.77;;;0.70;;
21330;SDS011;10824;51.632;4.950;2023-08-12T06:48:39;1.05;;;0.70;;
21330;SDS011;10824;51.632;4.950;2023-08-12T06:51:07;0.90;;;0.80;;
21330;SDS011;10824;51.632;4.950;2023-08-12T06:53:37;2.25;;;0.75;;
21330;SDS011;10824;51.632;4.950;2023-08-12T06:56:05;1.10;;;0.63;;
21330;SDS011;10824;51.632;4.950;2023-08-12T06:58:32;1.42;;;0.77;;
21330;SDS011;10824;51.632;4.950;2023-08-12T07:00:59;1.17;;;0.80;;
21330;SDS011;10824;51.632;4.950;2023-08-12T07:03:26;2.25;;;0.70;;
21330;SDS011;10824;51.632;4.950;2023-08-12T07:05:53;1.05;;;0.80;;
21330;SDS011;10824;51.632;4.950;2023-08-12T07:08:21;1.27;;;0.80;;
21330;SDS011;10824;51.632;4.950;2023-08-12T07:10:48;1.25;;;0.65;;
21330;SDS011;10824;51.632;4.950;2023-08-12T07:13:15;0.88;;;0.77;;
21330;SDS011;10824;51.632;4.950;2023-08-12T07:15:42;0.82;;;0.60;;
21330;SDS011;10824;51.632;4.950;2023-08-12T07:18:09;1.38;;;0.90;;
21330;SDS011;10824;51.632;4.950;2023-08-12T07:20:36;1.35;;;0.82;;
21330;SDS011;10824;51.632;4.950;2023-08-12T07:23:04;2.30;;;0.80;;
21330;SDS011;10824;51.632;4.950;2023-08-12T07:25:31;4.13;;;0.70;;
21330;SDS011;10824;51.632;4.950;2023-08-12T07:27:58;0.90;;;0.90;;
21330;SDS011;10824;51.632;4.950;2023-08-12T07:30:25;2.72;;;1.08;;
21330;SDS011;10824;51.632;4.950;2023-08-12T07:32:52;1.00;;;0.85;;
21330;SDS011;10824;51.632;4.950;2023-08-12T07:35:19;0.68;;;0.50;;
21330;SDS011;10824;51.632;4.950;2023-08-12T07:37:47;1.15;;;0.65;;
21330;SDS011;10824;51.632;4.950;2023-08-12T07:40:15;0.55;;;0.55;;
21330;SDS011;10824;51.632;4.950;2023-08-12T07:42:42;1.92;;;0.95;;
21330;SDS011;10824;51.632;4.950;2023-08-12T07:45:09;1.45;;;0.95;;
21330;SDS011;10824;51.632;4.950;2023-08-12T07:47:36;0.52;;;0.52;;
21330;SDS011;10824;51.632;4.950;2023-08-12T07:50:06;0.82;;;0.50;;
21330;SDS011;10824;51.632;4.950;2023-08-12T07:52:33;0.57;;;0.57;;
21330;SDS011;10824;51.632;4.950;2023-08-12T07:55:01;0.63;;;0.47;;
21330;SDS011;10824;51.632;4.950;2023-08-12T07:57:28;0.82;;;0.40;;
21330;SDS011;10824;51.632;4.950;2023-08-12T07:59:55;0.40;;;0.32;;
21330;SDS011;10824;51.632;4.950;2023-08-12T08:02:22;1.08;;;0.50;;
21330;SDS011;10824;51.632;4.950;2023-08-12T08:04:49;0.32;;;0.32;;
21330;SDS011;10824;51.632;4.950;2023-08-12T08:07:16;0.40;;;0.40;;
21330;SDS011;10824;51.632;4.950;2023-08-12T08:09:44;0.60;;;0.55;;
21330;SDS011;10824;51.632;4.950;2023-08-12T08:12:11;0.38;;;0.30;;
21330;SDS011;10824;51.632;4.950;2023-08-12T08:14:39;0.40;;;0.40;;
21330;SDS011;10824;51.632;4.950;2023-08-12T08:17:06;0.40;;;0.40;;
21330;SDS011;10824;51.632;4.950;2023-08-12T08:19:33;0.55;;;0.43;;
21330;SDS011;10824;51.632;4.950;2023-08-12T08:22:00;0.50;;;0.40;;
21330;SDS011;10824;51.632;4.950;2023-08-12T08:24:27;6.05;;;0.50;;
21330;SDS011;10824;51.632;4.950;2023-08-12T08:26:55;2.63;;;0.40;;
21330;SDS011;10824;51.632;4.950;2023-08-12T08:29:22;0.40;;;0.40;;
21330;SDS011;10824;51.632;4.950;2023-08-12T08:31:50;2.35;;;0.50;;
21330;SDS011;10824;51.632;4.950;2023-08-12T08:34:17;1.77;;;0.30;;
21330;SDS011;10824;51.632;4.950;2023-08-12T08:36:44;0.75;;;0.40;;
21330;SDS011;10824;51.632;4.950;2023-08-12T08:39:11;0.90;;;0.70;;
21330;SDS011;10824;51.632;4.950;2023-08-12T08:41:39;0.40;;;0.40;;
21330;SDS011;10824;51.632;4.950;2023-08-12T08:44:08;4.90;;;0.80;;
21330;SDS011;10824;51.632;4.950;2023-08-12T08:46:35;3.30;;;0.63;;
21330;SDS011;10824;51.632;4.950;2023-08-12T08:49:03;0.77;;;0.45;;
21330;SDS011;10824;51.632;4.950;2023-08-12T08:51:32;0.93;;;0.50;;
21330;SDS011;10824;51.632;4.950;2023-08-12T08:53:59;3.10;;;1.45;;
21330;SDS011;10824;51.632;4.950;2023-08-12T08:56:30;1.05;;;0.60;;
21330;SDS011;10824;51.632;4.950;2023-08-12T08:58:59;9.27;;;1.75;;
21330;SDS011;10824;51.632;4.950;2023-08-12T09:01:27;1.00;;;0.60;;
21330;SDS011;10824;51.632;4.950;2023-08-12T09:03:55;0.93;;;0.73;;
21330;SDS011;10824;51.632;4.950;2023-08-12T09:06:24;3.90;;;1.33;;
21330;SDS011;10824;51.632;4.950;2023-08-12T09:08:52;1.30;;;0.68;;
21330;SDS011;10824;51.632;4.950;2023-08-12T09:11:20;4.22;;;2.33;;
21330;SDS011;10824;51.632;4.950;2023-08-12T09:13:47;0.95;;;0.65;;
21330;SDS011;10824;51.632;4.950;2023-08-12T09:16:15;2.63;;;0.90;;
21330;SDS011;10824;51.632;4.950;2023-08-12T09:18:43;1.63;;;0.75;;
21330;SDS011;10824;51.632;4.950;2023-08-12T09:21:11;3.20;;;0.70;;
21330;SDS011;10824;51.632;4.950;2023-08-12T09:23:38;2.05;;;0.60;;
21330;SDS011;10824;51.632;4.950;2023-08-12T09:26:13;1.02;;;0.70;;
21330;SDS011;10824;51.632;4.950;2023-08-12T09:28:42;2.00;;;0.50;;
21330;SDS011;10824;51.632;4.950;2023-08-12T09:31:28;0.93;;;0.55;;
21330;SDS011;10824;51.632;4.950;2023-08-12T09:33:58;3.25;;;0.63;;
21330;SDS011;10824;51.632;4.950;2023-08-12T09:36:29;1.02;;;0.63;;
21330;SDS011;10824;51.632;4.950;2023-08-12T09:38:57;0.88;;;0.60;;
21330;SDS011;10824;51.632;4.950;2023-08-12T09:41:26;2.30;;;0.63;;
21330;SDS011;10824;51.632;4.950;2023-08-12T09:43:55;2.58;;;0.75;;
21330;SDS011;10824;51.632;4.950;2023-08-12T09:46:23;1.85;;;0.75;;
21330;SDS011;10824;51.632;4.950;2023-08-12T09:48:51;1.85;;;0.57;;
21330;SDS011;10824;51.632;4.950;2023-08-12T09:51:19;2.92;;;1.58;;
21330;SDS011;10824;51.632;4.950;2023-08-12T09:53:50;2.65;;;0.60;;
21330;SDS011;10824;51.632;4.950;2023-08-12T09:56:19;10.40;;;1.63;;
21330;SDS011;10824;51.632;4.950;2023-08-12T09:58:50;3.85;;;0.52;;
21330;SDS011;10824;51.632;4.950;2023-08-12T10:01:20;2.00;;;0.60;;
21330;SDS011;10824;51.632;4.950;2023-08-12T10:03:48;2.88;;;0.50;;
21330;SDS011;10824;51.632;4.950;2023-08-12T10:06:17;5.05;;;1.98;;
21330;SDS011;10824;51.632;4.950;2023-08-12T10:08:46;0.82;;;0.40;;
21330;SDS011;10824;51.632;4.950;2023-08-12T10:11:15;1.63;;;0.57;;
21330;SDS011;10824;51.632;4.950;2023-08-12T10:13:42;1.25;;;0.80;;
21330;SDS011;10824;51.632;4.950;2023-08-12T10:16:09;1.08;;;0.60;;
21330;SDS011;10824;51.632;4.950;2023-08-12T10:18:38;3.92;;;0.80;;
21330;SDS011;10824;51.632;4.950;2023-08-12T10:21:08;2.45;;;0.90;;
21330;SDS011;10824;51.632;4.950;2023-08-12T10:23:41;1.75;;;0.80;;
21330;SDS011;10824;51.632;4.950;2023-08-12T10:26:13;1.08;;;0.63;;
21330;SDS011;10824;51.632;4.950;2023-08-12T10:28:42;1.77;;;0.52;;
21330;SDS011;10824;51.632;4.950;2023-08-12T10:31:11;1.80;;;0.60;;
21330;SDS011;10824;51.632;4.950;2023-08-12T10:33:38;1.85;;;0.90;;
21330;SDS011;10824;51.632;4.950;2023-08-12T10:36:06;3.03;;;0.75;;
21330;SDS011;10824;51.632;4.950;2023-08-12T10:38:34;1.27;;;0.75;;
21330;SDS011;10824;51.632;4.950;2023-08-12T10:43:56;2.08;;;0.88;;
21330;SDS011;10824;51.632;4.950;2023-08-12T10:46:30;1.00;;;0.60;;
21330;SDS011;10824;51.632;4.950;2023-08-12T10:49:02;1.55;;;0.73;;
21330;SDS011;10824;51.632;4.950;2023-08-12T11:02:31;3.70;;;1.00;;
21330;SDS011;10824;51.632;4.950;2023-08-12T11:05:01;1.60;;;0.65;;
21330;SDS011;10824;51.632;4.950;2023-08-12T11:10:00;3.70;;;0.90;;
21330;SDS011;10824;51.632;4.950;2023-08-12T11:12:58;3.40;;;1.00;;
21330;SDS011;10824;51.632;4.950;2023-08-12T11:15:32;3.53;;;0.57;;
21330;SDS011;10824;51.632;4.950;2023-08-12T11:18:06;3.95;;;0.90;;
21330;SDS011;10824;51.632;4.950;2023-08-12T11:20:35;3.63;;;1.10;;
21330;SDS011;10824;51.632;4.950;2023-08-12T11:23:03;3.28;;;1.65;;
21330;SDS011;10824;51.632;4.950;2023-08-12T11:25:32;1.77;;;0.70;;
21330;SDS011;10824;51.632;4.950;2023-08-12T11:28:00;3.15;;;1.00;;
21330;SDS011;10824;51.632;4.950;2023-08-12T11:30:27;2.55;;;0.80;;
21330;SDS011;10824;51.632;4.950;2023-08-12T11:32:58;2.90;;;0.80;;
21330;SDS011;10824;51.632;4.950;2023-08-12T11:35:27;2.08;;;1.00;;
21330;SDS011;10824;51.632;4.950;2023-08-12T11:37:56;3.05;;;0.93;;
21330;SDS011;10824;51.632;4.950;2023-08-12T11:40:25;1.83;;;0.77;;
21330;SDS011;10824;51.632;4.950;2023-08-12T11:42:54;4.28;;;1.02;;
21330;SDS011;10824;51.632;4.950;2023-08-12T11:45:22;2.17;;;1.50;;
21330;SDS011;10824;51.632;4.950;2023-08-12T11:47:53;2.17;;;0.80;;
21330;SDS011;10824;51.632;4.950;2023-08-12T11:50:26;1.92;;;0.85;;
21330;SDS011;10824;51.632;4.950;2023-08-12T11:52:55;2.17;;;1.02;;
21330;SDS011;10824;51.632;4.950;2023-08-12T11:55:22;3.97;;;1.92;;
21330;SDS011;10824;51.632;4.950;2023-08-12T11:57:50;1.08;;;0.60;;
21330;SDS011;10824;51.632;4.950;2023-08-12T12:00:19;6.05;;;1.08;;
21330;SDS011;10824;51.632;4.950;2023-08-12T12:03:09;3.13;;;0.90;;
21330;SDS011;10824;51.632;4.950;2023-08-12T12:05:45;3.25;;;0.95;;
21330;SDS011;10824;51.632;4.950;2023-08-12T12:08:15;2.47;;;0.93;;
21330;SDS011;10824;51.632;4.950;2023-08-12T12:10:44;3.13;;;0.80;;
21330;SDS011;10824;51.632;4.950;2023-08-12T12:13:29;3.90;;;0.90;;
21330;SDS011;10824;51.632;4.950;2023-08-12T12:15:58;3.08;;;0.95;;
21330;SDS011;10824;51.632;4.950;2023-08-12T12:18:36;2.22;;;1.00;;
21330;SDS011;10824;51.632;4.950;2023-08-12T12:21:07;2.92;;;0.93;;
21330;SDS011;10824;51.632;4.950;2023-08-12T12:23:36;1.17;;;0.60;;
21330;SDS011;10824;51.632;4.950;2023-08-12T12:26:23;3.60;;;0.88;;
21330;SDS011;10824;51.632;4.950;2023-08-12T12:29:35;1.65;;;0.50;;
21330;SDS011;10824;51.632;4.950;2023-08-12T12:32:07;1.27;;;0.70;;
21330;SDS011;10824;51.632;4.950;2023-08-12T12:34:34;1.95;;;0.70;;
21330;SDS011;10824;51.632;4.950;2023-08-12T12:37:02;2.03;;;0.77;;
21330;SDS011;10824;51.632;4.950;2023-08-12T12:39:29;1.73;;;0.70;;
21330;SDS011;10824;51.632;4.950;2023-08-12T12:41:57;1.80;;;0.68;;
21330;SDS011;10824;51.632;4.950;2023-08-12T12:44:26;4.88;;;0.88;;
21330;SDS011;10824;51.632;4.950;2023-08-12T12:46:53;3.35;;;0.80;;
21330;SDS011;10824;51.632;4.950;2023-08-12T12:49:46;1.60;;;0.90;;
21330;SDS011;10824;51.632;4.950;2023-08-12T12:52:24;3.33;;;0.80;;
21330;SDS011;10824;51.632;4.950;2023-08-12T12:54:55;2.53;;;0.90;;
21330;SDS011;10824;51.632;4.950;2023-08-12T12:57:25;12.38;;;2.55;;
21330;SDS011;10824;51.632;4.950;2023-08-12T13:03:34;3.60;;;0.98;;
21330;SDS011;10824;51.632;4.950;2023-08-12T13:06:04;3.50;;;0.80;;
21330;SDS011;10824;51.632;4.950;2023-08-12T13:08:32;3.70;;;0.65;;
21330;SDS011;10824;51.632;4.950;2023-08-12T13:10:59;2.40;;;0.60;;
21330;SDS011;10824;51.632;4.950;2023-08-12T13:13:26;2.17;;;0.88;;
21330;SDS011;10824;51.632;4.950;2023-08-12T13:15:53;1.42;;;0.93;;
21330;SDS011;10824;51.632;4.950;2023-08-12T13:18:21;4.28;;;0.93;;
21330;SDS011;10824;51.632;4.950;2023-08-12T13:20:48;4.20;;;0.80;;
21330;SDS011;10824;51.632;4.950;2023-08-12T13:23:15;2.25;;;0.70;;
21330;SDS011;10824;51.632;4.950;2023-08-12T13:25:42;1.95;;;0.70;;
21330;SDS011;10824;51.632;4.950;2023-08-12T13:28:09;2.25;;;1.00;;
21330;SDS011;10824;51.632;4.950;2023-08-12T13:30:40;2.72;;;0.82;;
21330;SDS011;10824;51.632;4.950;2023-08-12T13:33:07;1.85;;;0.70;;
21330;SDS011;10824;51.632;4.950;2023-08-12T13:35:35;4.78;;;0.77;;
21330;SDS011;10824;51.632;4.950;2023-08-12T13:38:02;7.07;;;1.35;;
21330;SDS011;10824;51.632;4.950;2023-08-12T13:40:29;3.90;;;0.75;;
21330;SDS011;10824;51.632;4.950;2023-08-12T13:42:56;3.50;;;0.63;;
21330;SDS011;10824;51.632;4.950;2023-08-12T13:45:23;1.52;;;0.85;;
21330;SDS011;10824;51.632;4.950;2023-08-12T13:47:50;6.22;;;0.80;;
21330;SDS011;10824;51.632;4.950;2023-08-12T13:50:18;2.10;;;0.90;;
21330;SDS011;10824;51.632;4.950;2023-08-12T13:52:46;3.25;;;1.25;;
21330;SDS011;10824;51.632;4.950;2023-08-12T13:55:17;2.10;;;0.73;;
21330;SDS011;10824;51.632;4.950;2023-08-12T13:57:44;4.10;;;0.98;;
21330;SDS011;10824;51.632;4.950;2023-08-12T14:00:11;2.25;;;1.10;;
21330;SDS011;10824;51.632;4.950;2023-08-12T14:02:43;5.45;;;1.10;;
21330;SDS011;10824;51.632;4.950;2023-08-12T14:05:11;1.83;;;0.93;;
21330;SDS011;10824;51.632;4.950;2023-08-12T14:07:38;4.55;;;1.20;;
21330;SDS011;10824;51.632;4.950;2023-08-12T14:10:05;4.95;;;1.08;;
21330;SDS011;10824;51.632;4.950;2023-08-12T14:12:33;7.72;;;0.90;;
21330;SDS011;10824;51.632;4.950;2023-08-12T14:15:01;1.50;;;0.90;;
21330;SDS011;10824;51.632;4.950;2023-08-12T14:17:28;2.47;;;1.00;;
21330;SDS011;10824;51.632;4.950;2023-08-12T14:19:55;1.95;;;1.08;;
21330;SDS011;10824;51.632;4.950;2023-08-12T14:22:24;1.00;;;0.80;;
21330;SDS011;10824;51.632;4.950;2023-08-12T14:24:52;2.08;;;1.05;;
21330;SDS011;10824;51.632;4.950;2023-08-12T14:27:19;2.28;;;0.88;;
21330;SDS011;10824;51.632;4.950;2023-08-12T14:29:46;2.22;;;0.80;;
21330;SDS011;10824;51.632;4.950;2023-08-12T14:32:13;1.83;;;0.80;;
21330;SDS011;10824;51.632;4.950;2023-08-12T14:34:42;1.48;;;0.85;;
21330;SDS011;10824;51.632;4.950;2023-08-12T14:37:12;4.63;;;0.90;;
21330;SDS011;10824;51.632;4.950;2023-08-12T14:39:39;2.88;;;0.85;;
21330;SDS011;10824;51.632;4.950;2023-08-12T14:42:06;2.70;;;0.70;;
21330;SDS011;10824;51.632;4.950;2023-08-12T14:44:35;4.32;;;0.70;;
21330;SDS011;10824;51.632;4.950;2023-08-12T14:47:03;1.30;;;0.70;;
21330;SDS011;10824;51.632;4.950;2023-08-12T14:49:33;4.07;;;0.95;;
21330;SDS011;10824;51.632;4.950;2023-08-12T14:52:02;1.83;;;0.77;;
21330;SDS011;10824;51.632;4.950;2023-08-12T14:57:19;2.67;;;1.05;;
21330;SDS011;10824;51.632;4.950;2023-08-12T14:59:46;3.45;;;1.25;;
21330;SDS011;10824;51.632;4.950;2023-08-12T15:02:19;3.38;;;1.20;;
21330;SDS011;10824;51.632;4.950;2023-08-12T15:04:47;5.22;;;1.00;;
21330;SDS011;10824;51.632;4.950;2023-08-12T15:07:15;4.55;;;1.00;;
21330;SDS011;10824;51.632;4.950;2023-08-12T15:09:46;2.15;;;0.95;;
21330;SDS011;10824;51.632;4.950;2023-08-12T15:12:14;4.45;;;1.00;;
21330;SDS011;10824;51.632;4.950;2023-08-12T15:14:40;3.17;;;1.17;;
21330;SDS011;10824;51.632;4.950;2023-08-12T15:17:07;5.72;;;1.30;;
21330;SDS011;10824;51.632;4.950;2023-08-12T15:19:35;4.43;;;1.40;;
21330;SDS011;10824;51.632;4.950;2023-08-12T15:22:02;8.75;;;1.95;;
21330;SDS011;10824;51.632;4.950;2023-08-12T15:24:29;2.95;;;1.60;;
21330;SDS011;10824;51.632;4.950;2023-08-12T15:26:56;5.43;;;2.08;;
21330;SDS011;10824;51.632;4.950;2023-08-12T15:29:23;5.78;;;1.23;;